Time;durP1;ratioP1;P1;durP2;ratioP2;P2;SDS_P1;SDS_P2;PMS_P1;PMS_P2;Temp;Humidity;BMP_temperature;BMP_pressure;BME280_temperature;BME280_humidity;BME280_pressure;Samples;Min_cycle;Max_cycle;Signal;HPM_P1;HPM_P2
2023/10/26 00:00:35;;;;;;;144.13;58.60;;;9.60;99.90;;;;;;4893292;29;20127;-80
2023/10/26 00:03:01;;;;;;;94.57;54.67;;;9.60;99.90;;;;;;4881129;29;20044;-81
2023/10/26 00:05:27;;;;;;;94.82;52.30;;;9.50;99.90;;;;;;4901770;29;20047;-80
2023/10/26 00:07:52;;;;;;;112.00;55.35;;;9.50;99.90;;;;;;4888855;29;20040;-81
2023/10/26 00:10:18;;;;;;;91.55;52.55;;;9.50;99.90;;;;;;4930227;29;20044;-80
2023/10/26 00:12:47;;;;;;;126.47;56.63;;;9.40;99.90;;;;;;4903450;29;20468;-81
2023/10/26 00:15:12;;;;;;;76.45;52.25;;;9.40;99.90;;;;;;4886863;29;20060;-80
2023/10/26 00:17:38;;;;;;;148.10;59.28;;;9.30;99.90;;;;;;4901629;29;20040;-80
2023/10/26 00:20:08;;;;;;;90.32;53.58;;;9.30;99.90;;;;;;4906102;29;20040;-80
2023/10/26 00:22:34;;;;;;;129.15;60.28;;;9.30;99.90;;;;;;4907109;29;20040;-81
2023/10/26 00:24:59;;;;;;;173.25;64.22;;;9.30;99.90;;;;;;4877534;29;20062;-80
2023/10/26 00:27:25;;;;;;;248.88;75.10;;;9.20;99.90;;;;;;4876031;29;20075;-80
2023/10/26 00:29:50;;;;;;;108.43;58.08;;;9.20;99.90;;;;;;4901520;29;20044;-80
2023/10/26 00:32:16;;;;;;;91.72;55.20;;;9.30;99.90;;;;;;4900667;29;20044;-79
2023/10/26 00:34:42;;;;;;;99.80;58.33;;;9.20;99.90;;;;;;4881012;29;20119;-79
2023/10/26 00:37:07;;;;;;;130.63;59.42;;;9.20;99.90;;;;;;4918133;29;20041;-81
2023/10/26 00:39:34;;;;;;;157.68;63.97;;;9.30;99.90;;;;;;4906953;29;20420;-81
2023/10/26 00:41:59;;;;;;;114.80;56.38;;;9.30;99.90;;;;;;4898272;29;20092;-80
2023/10/26 00:44:25;;;;;;;146.85;62.03;;;9.30;99.90;;;;;;4876097;29;20052;-81
2023/10/26 00:46:52;;;;;;;232.40;72.00;;;9.30;99.90;;;;;;4874456;29;20049;-80
2023/10/26 00:49:19;;;;;;;136.85;62.95;;;9.30;99.90;;;;;;4895597;29;20720;-80
2023/10/26 00:51:47;;;;;;;173.20;64.03;;;9.30;99.90;;;;;;4890415;29;20040;-80
2023/10/26 00:54:18;;;;;;;117.15;62.17;;;9.30;99.90;;;;;;4875750;29;20041;-80
2023/10/26 00:56:44;;;;;;;108.72;61.78;;;9.40;99.90;;;;;;4874583;29;20043;-81
2023/10/26 00:59:10;;;;;;;142.20;63.25;;;9.40;99.90;;;;;;4897819;29;20040;-80
2023/10/26 01:01:36;;;;;;;207.82;69.88;;;9.40;99.90;;;;;;4882369;29;20353;-81
2023/10/26 01:04:03;;;;;;;151.85;61.90;;;9.40;99.90;;;;;;4872865;29;20048;-80
2023/10/26 01:06:28;;;;;;;181.68;68.32;;;9.40;99.90;;;;;;4887570;29;20041;-81
2023/10/26 01:08:54;;;;;;;237.75;72.68;;;9.40;99.90;;;;;;4877832;29;20043;-80
2023/10/26 01:11:21;;;;;;;141.73;60.75;;;9.40;99.90;;;;;;4901002;29;20135;-81
2023/10/26 01:13:47;;;;;;;109.05;62.50;;;9.40;99.90;;;;;;4887549;29;20047;-81
2023/10/26 01:16:14;;;;;;;179.18;67.00;;;9.40;99.90;;;;;;4927242;29;20043;-78
2023/10/26 01:18:39;;;;;;;176.10;70.22;;;9.40;99.90;;;;;;4899653;29;20173;-80
2023/10/26 01:21:05;;;;;;;177.10;66.65;;;9.40;99.90;;;;;;4898068;29;20127;-81
2023/10/26 01:23:30;;;;;;;122.53;63.17;;;9.40;99.90;;;;;;4889460;29;20040;-81
2023/10/26 01:25:58;;;;;;;98.07;57.97;;;9.40;99.90;;;;;;4904545;29;20048;-80
2023/10/26 01:28:25;;;;;;;104.57;60.25;;;9.40;99.90;;;;;;4907286;29;20148;-80
2023/10/26 01:30:52;;;;;;;110.05;63.17;;;9.40;99.90;;;;;;4884788;29;20168;-81
2023/10/26 01:33:18;;;;;;;199.40;67.80;;;9.40;99.90;;;;;;4898343;29;20054;-80
2023/10/26 01:35:45;;;;;;;222.77;73.68;;;9.40;99.90;;;;;;4897956;29;20484;-80
2023/10/26 01:38:11;;;;;;;133.00;65.28;;;9.40;99.90;;;;;;4877398;29;20408;-81
2023/10/26 01:40:37;;;;;;;112.25;60.33;;;9.40;99.90;;;;;;4900559;29;20036;-80
2023/10/26 01:43:03;;;;;;;115.07;65.03;;;9.40;99.90;;;;;;4908781;29;20037;-81
2023/10/26 01:45:28;;;;;;;205.68;67.22;;;9.40;99.90;;;;;;4888313;29;20040;-81
2023/10/26 01:47:54;;;;;;;208.70;69.10;;;9.40;99.90;;;;;;4915798;29;20071;-80
2023/10/26 01:50:20;;;;;;;123.95;66.88;;;9.40;99.90;;;;;;4900246;29;20043;-81
2023/10/26 01:52:46;;;;;;;122.65;65.45;;;9.40;99.90;;;;;;4894071;29;20041;-81
2023/10/26 01:55:11;;;;;;;106.20;61.40;;;9.40;99.90;;;;;;4888515;29;20408;-81
2023/10/26 01:57:37;;;;;;;152.05;67.95;;;9.30;99.90;;;;;;4881680;29;20051;-80
2023/10/26 02:00:03;;;;;;;118.65;60.38;;;9.30;99.90;;;;;;4880714;29;20032;-80
2023/10/26 02:02:28;;;;;;;114.70;64.85;;;9.30;99.90;;;;;;4889171;29;20040;-80
2023/10/26 02:04:57;;;;;;;140.05;65.53;;;9.30;99.90;;;;;;4892342;29;20259;-81
2023/10/26 02:07:22;;;;;;;252.43;76.88;;;9.30;99.90;;;;;;4868176;29;20087;-80
2023/10/26 02:09:48;;;;;;;120.47;63.85;;;9.30;99.90;;;;;;4881119;29;20135;-80
2023/10/26 02:12:13;;;;;;;279.63;80.70;;;9.30;99.90;;;;;;4872637;29;20045;-80
2023/10/26 02:14:39;;;;;;;116.32;65.40;;;9.20;99.90;;;;;;4915394;29;20403;-80
2023/10/26 02:17:05;;;;;;;183.63;75.97;;;9.20;99.90;;;;;;4899676;29;20491;-79
2023/10/26 02:19:30;;;;;;;271.75;78.78;;;9.30;99.90;;;;;;4884151;29;20041;-81
2023/10/26 02:21:56;;;;;;;187.02;74.07;;;9.20;99.90;;;;;;4899653;29;20510;-81
2023/10/26 02:24:21;;;;;;;206.13;80.50;;;9.20;99.90;;;;;;4892451;29;20083;-80
2023/10/26 02:26:47;;;;;;;136.23;65.95;;;9.30;99.90;;;;;;4896483;29;20083;-80
2023/10/26 02:29:13;;;;;;;123.88;68.05;;;9.20;99.90;;;;;;4912181;29;20108;-80
2023/10/26 02:31:38;;;;;;;176.38;76.38;;;9.20;99.90;;;;;;4881107;29;20040;-81
2023/10/26 02:34:04;;;;;;;190.38;78.32;;;9.20;99.90;;;;;;4885775;29;20039;-80
2023/10/26 02:36:30;;;;;;;239.02;76.57;;;9.20;99.90;;;;;;4883008;29;20040;-80
2023/10/26 02:38:56;;;;;;;193.52;74.60;;;9.20;99.90;;;;;;4924628;29;20051;-80
2023/10/26 02:41:21;;;;;;;165.10;77.88;;;9.20;99.90;;;;;;4891099;29;20036;-81
2023/10/26 02:43:47;;;;;;;144.15;72.45;;;9.20;99.90;;;;;;4876547;29;20036;-80
2023/10/26 02:46:13;;;;;;;260.23;84.30;;;9.20;99.90;;;;;;4891233;29;20052;-80
2023/10/26 02:48:38;;;;;;;233.57;83.10;;;9.20;99.90;;;;;;4897894;29;20044;-80
2023/10/26 02:51:04;;;;;;;146.40;74.75;;;9.20;99.90;;;;;;4892160;29;20051;-80
2023/10/26 02:53:30;;;;;;;340.30;88.82;;;9.30;99.90;;;;;;4887032;29;20052;-80
2023/10/26 02:55:55;;;;;;;134.73;70.10;;;9.30;99.90;;;;;;4867119;29;20085;-81
2023/10/26 02:58:21;;;;;;;121.43;67.55;;;9.20;99.90;;;;;;4879464;29;20058;-80
2023/10/26 03:00:46;;;;;;;237.82;83.32;;;9.20;99.90;;;;;;4880441;29;20195;-80
2023/10/26 03:03:13;;;;;;;179.52;73.38;;;9.30;99.90;;;;;;4863671;29;20040;-81
2023/10/26 03:05:38;;;;;;;129.13;69.00;;;9.20;99.90;;;;;;4881765;29;20052;-80
2023/10/26 03:08:05;;;;;;;150.07;73.13;;;9.20;99.90;;;;;;4890431;29;20423;-80
2023/10/26 03:10:30;;;;;;;140.88;71.15;;;9.20;99.90;;;;;;4866146;29;20530;-80
2023/10/26 03:12:56;;;;;;;210.50;80.50;;;9.20;99.90;;;;;;4879262;29;20041;-81
2023/10/26 03:15:21;;;;;;;124.68;68.38;;;9.20;99.90;;;;;;4887943;29;20487;-81
2023/10/26 03:17:47;;;;;;;120.18;69.88;;;9.20;99.90;;;;;;4883256;29;20063;-80
2023/10/26 03:20:13;;;;;;;130.60;72.20;;;9.10;99.90;;;;;;4876305;29;20131;-80
2023/10/26 03:22:38;;;;;;;157.43;70.97;;;9.10;99.90;;;;;;4895851;29;20047;-80
2023/10/26 03:25:07;;;;;;;126.88;69.60;;;9.10;99.90;;;;;;4897971;29;20566;-81
2023/10/26 03:27:33;;;;;;;106.15;67.97;;;9.10;99.90;;;;;;4881669;29;20060;-80
2023/10/26 03:29:59;;;;;;;157.80;75.35;;;9.10;99.90;;;;;;4889294;29;20044;-81
2023/10/26 03:32:24;;;;;;;147.10;65.32;;;9.00;99.90;;;;;;4880696;29;20076;-81
2023/10/26 03:34:50;;;;;;;111.75;70.15;;;9.00;99.90;;;;;;4887793;29;20123;-80
2023/10/26 03:37:16;;;;;;;195.40;79.85;;;9.00;99.90;;;;;;4895289;29;20028;-81
2023/10/26 03:39:42;;;;;;;216.70;82.53;;;9.00;99.90;;;;;;4898572;29;20032;-81
2023/10/26 03:42:07;;;;;;;204.18;85.38;;;9.00;99.90;;;;;;4910588;29;20096;-80
2023/10/26 03:44:33;;;;;;;160.95;71.78;;;8.90;99.90;;;;;;4874296;29;20052;-80
2023/10/26 03:46:59;;;;;;;194.35;78.13;;;8.90;99.90;;;;;;4869953;29;20040;-80
2023/10/26 03:49:24;;;;;;;272.65;79.90;;;8.90;99.90;;;;;;4864628;29;20594;-81
2023/10/26 03:51:50;;;;;;;180.68;76.78;;;8.80;99.90;;;;;;4867751;29;20561;-80
2023/10/26 03:54:15;;;;;;;235.00;82.40;;;8.80;99.90;;;;;;4869902;29;20048;-80
2023/10/26 03:56:41;;;;;;;330.60;90.70;;;8.80;99.90;;;;;;4887314;29;20091;-80
2023/10/26 03:59:07;;;;;;;337.55;88.35;;;8.70;99.90;;;;;;4884662;29;20033;-80
2023/10/26 04:01:34;;;;;;;220.13;74.93;;;8.70;99.90;;;;;;4871244;29;20043;-80
2023/10/26 04:04:01;;;;;;;347.00;90.63;;;8.70;99.90;;;;;;4869494;29;20403;-80
2023/10/26 04:06:27;;;;;;;244.95;90.40;;;8.70;99.90;;;;;;4890465;29;20161;-81
2023/10/26 04:08:56;;;;;;;298.23;91.38;;;8.50;99.90;;;;;;4894906;29;20638;-80
2023/10/26 04:11:22;;;;;;;324.80;94.43;;;8.60;99.90;;;;;;4877430;29;20076;-80
2023/10/26 04:13:48;;;;;;;308.23;91.60;;;8.50;99.90;;;;;;4878317;29;20145;-80
2023/10/26 04:16:13;;;;;;;302.40;93.70;;;8.50;99.90;;;;;;4878355;29;20261;-81
2023/10/26 04:18:39;;;;;;;435.80;96.47;;;8.50;99.90;;;;;;4886521;29;20127;-80
2023/10/26 04:21:05;;;;;;;359.65;87.75;;;8.50;99.90;;;;;;4880505;29;20111;-80
2023/10/26 04:23:30;;;;;;;353.83;85.63;;;8.40;99.90;;;;;;4886533;29;20044;-79
2023/10/26 04:25:56;;;;;;;398.15;97.55;;;8.40;99.90;;;;;;4896387;29;20040;-80
2023/10/26 04:28:22;;;;;;;327.27;90.05;;;8.40;99.90;;;;;;4883067;29;20400;-80
2023/10/26 04:30:48;;;;;;;372.55;107.82;;;8.40;99.90;;;;;;4886036;29;20033;-80
2023/10/26 04:33:17;;;;;;;433.63;113.20;;;8.40;99.90;;;;;;4916820;29;20529;-79
2023/10/26 04:35:44;;;;;;;442.40;108.75;;;8.40;99.90;;;;;;4908369;29;20039;-79
2023/10/26 04:38:10;;;;;;;497.27;118.80;;;8.40;99.90;;;;;;4894745;29;20036;-80
2023/10/26 04:40:40;;;;;;;552.13;125.10;;;8.40;99.90;;;;;;4897623;29;20404;-80
2023/10/26 04:43:06;;;;;;;477.38;114.88;;;8.50;99.90;;;;;;4891968;29;20043;-80
2023/10/26 04:45:33;;;;;;;613.67;127.32;;;8.50;99.90;;;;;;4923531;29;20452;-80
2023/10/26 04:47:58;;;;;;;888.13;153.15;;;8.50;99.90;;;;;;4898878;29;20503;-80
2023/10/26 04:50:25;;;;;;;868.63;148.27;;;8.60;99.90;;;;;;4897687;29;20046;-80
2023/10/26 04:52:51;;;;;;;652.65;128.68;;;8.60;99.90;;;;;;4902332;29;20047;-81
2023/10/26 04:55:16;;;;;;;765.42;137.02;;;8.60;99.90;;;;;;4909355;29;20033;-80
2023/10/26 04:57:42;;;;;;;745.72;139.40;;;8.70;99.90;;;;;;4908680;29;20032;-80
2023/10/26 05:00:09;;;;;;;760.30;134.95;;;8.70;99.90;;;;;;4878368;29;20127;-79
2023/10/26 05:02:39;;;;;;;674.95;126.15;;;8.70;99.90;;;;;;4931072;23;20125;-78
2023/10/26 05:05:05;;;;;;;885.58;151.25;;;8.70;99.90;;;;;;4914850;29;20100;-78
2023/10/26 05:07:31;;;;;;;838.45;149.80;;;8.70;99.90;;;;;;4901563;29;20396;-78
2023/10/26 05:09:57;;;;;;;882.88;152.35;;;8.80;99.90;;;;;;4900934;29;20039;-78
2023/10/26 05:12:22;;;;;;;792.65;140.02;;;8.80;99.90;;;;;;4907255;29;20117;-78
2023/10/26 05:14:48;;;;;;;687.28;129.20;;;8.80;99.90;;;;;;4931975;29;20083;-78
2023/10/26 05:17:14;;;;;;;712.20;130.75;;;8.80;99.90;;;;;;4931713;29;20439;-78
2023/10/26 05:19:39;;;;;;;707.42;133.52;;;8.80;99.90;;;;;;4916756;29;20504;-78
2023/10/26 05:22:05;;;;;;;632.78;120.00;;;8.80;99.90;;;;;;4926919;29;20043;-78
2023/10/26 05:24:31;;;;;;;806.40;142.00;;;8.80;99.90;;;;;;4934784;29;20072;-78
2023/10/26 05:26:56;;;;;;;686.97;133.75;;;8.80;99.90;;;;;;4918903;29;20104;-78
2023/10/26 05:29:22;;;;;;;746.72;134.07;;;8.80;99.90;;;;;;4915599;29;20052;-78
2023/10/26 05:31:47;;;;;;;687.55;132.90;;;8.80;99.90;;;;;;4921886;29;20546;-78
2023/10/26 05:34:13;;;;;;;749.67;134.27;;;8.80;99.90;;;;;;4918126;29;20051;-78
2023/10/26 05:36:39;;;;;;;666.13;117.80;;;8.80;99.90;;;;;;4942297;29;20039;-78
2023/10/26 05:39:05;;;;;;;683.20;127.63;;;8.80;99.90;;;;;;4919756;29;20079;-78
2023/10/26 05:41:31;;;;;;;525.13;113.68;;;8.80;99.90;;;;;;4924915;29;20511;-78
2023/10/26 05:43:57;;;;;;;735.53;130.75;;;8.80;99.90;;;;;;4921968;29;20490;-77
2023/10/26 05:46:22;;;;;;;763.13;134.90;;;8.80;99.90;;;;;;4927915;29;20082;-78
2023/10/26 05:48:48;;;;;;;760.88;143.32;;;8.80;99.90;;;;;;4932263;29;20048;-78
2023/10/26 05:51:13;;;;;;;781.65;148.13;;;8.80;99.90;;;;;;4921585;29;20043;-78
2023/10/26 05:53:39;;;;;;;688.55;137.35;;;8.80;99.90;;;;;;4913689;29;20043;-77
2023/10/26 05:56:05;;;;;;;558.75;114.35;;;8.80;99.90;;;;;;4927624;29;20039;-78
2023/10/26 05:58:30;;;;;;;664.78;129.45;;;8.80;99.90;;;;;;4927702;29;20107;-78
2023/10/26 06:00:56;;;;;;;618.72;122.53;;;8.70;99.90;;;;;;4921861;29;20027;-78
2023/10/26 06:03:22;;;;;;;833.97;140.73;;;8.70;99.90;;;;;;4938747;29;20553;-78
2023/10/26 06:05:47;;;;;;;594.25;115.53;;;8.70;99.90;;;;;;4933991;29;20442;-77
2023/10/26 06:08:13;;;;;;;691.50;122.78;;;8.70;99.90;;;;;;4935059;29;20127;-78
2023/10/26 06:10:38;;;;;;;660.00;121.65;;;8.70;99.90;;;;;;4951410;29;20039;-78
2023/10/26 06:13:04;;;;;;;789.28;131.93;;;8.60;99.90;;;;;;4918002;29;20071;-77
2023/10/26 06:15:30;;;;;;;695.88;127.10;;;8.60;99.90;;;;;;4940133;29;20413;-78
2023/10/26 06:17:55;;;;;;;673.50;128.05;;;8.60;99.90;;;;;;4928676;29;20130;-78
2023/10/26 06:20:27;;;;;;;665.67;127.55;;;8.60;99.90;;;;;;4918297;29;20058;-78
2023/10/26 06:22:53;;;;;;;619.95;118.50;;;8.60;99.90;;;;;;4940061;29;20043;-78
2023/10/26 06:25:19;;;;;;;637.00;120.72;;;8.60;99.90;;;;;;4950005;29;20079;-78
2023/10/26 06:27:47;;;;;;;727.85;130.90;;;8.50;99.90;;;;;;4943577;29;20107;-77
2023/10/26 06:30:14;;;;;;;610.05;122.85;;;8.50;99.90;;;;;;4927301;29;20040;-78
2023/10/26 06:32:40;;;;;;;609.72;120.28;;;8.50;99.90;;;;;;4932813;29;20024;-77
2023/10/26 06:35:06;;;;;;;730.67;127.68;;;8.50;99.90;;;;;;4944152;29;20200;-77
2023/10/26 06:37:32;;;;;;;528.38;108.85;;;8.50;99.90;;;;;;4945288;29;20036;-78
2023/10/26 06:39:57;;;;;;;630.17;125.60;;;8.50;99.90;;;;;;4936987;29;20091;-78
2023/10/26 06:42:23;;;;;;;579.33;124.22;;;8.40;99.90;;;;;;4915298;29;20041;-77
2023/10/26 06:44:49;;;;;;;443.42;112.18;;;8.40;99.90;;;;;;4911952;29;20546;-78
2023/10/26 06:47:14;;;;;;;512.30;115.68;;;8.50;99.90;;;;;;4919790;29;20039;-77
2023/10/26 06:49:41;;;;;;;640.42;134.32;;;8.50;99.90;;;;;;4935314;29;20514;-78
2023/10/26 06:52:07;;;;;;;460.25;109.10;;;8.40;99.90;;;;;;4911236;29;20443;-77
2023/10/26 06:54:33;;;;;;;681.88;133.00;;;8.40;99.90;;;;;;4919179;29;20042;-77
2023/10/26 06:56:59;;;;;;;464.80;112.65;;;8.40;99.90;;;;;;4905723;29;20037;-77
2023/10/26 06:59:24;;;;;;;435.90;106.28;;;8.40;99.90;;;;;;4923006;29;20517;-78
2023/10/26 07:01:51;;;;;;;520.58;110.43;;;8.40;99.90;;;;;;4912992;29;20156;-78
2023/10/26 07:04:16;;;;;;;494.00;107.50;;;8.30;99.90;;;;;;4915367;29;20040;-75
2023/10/26 07:06:42;;;;;;;543.97;114.15;;;8.30;99.90;;;;;;4924808;29;20035;-75
2023/10/26 07:09:07;;;;;;;476.77;109.35;;;8.30;99.90;;;;;;4933366;29;20044;-75
2023/10/26 07:11:33;;;;;;;458.50;106.57;;;8.30;99.90;;;;;;4933624;29;20510;-75
2023/10/26 07:13:59;;;;;;;527.22;112.63;;;8.30;99.90;;;;;;4933329;29;20051;-75
2023/10/26 07:16:24;;;;;;;454.38;109.13;;;8.30;99.90;;;;;;4923485;29;20189;-75
2023/10/26 07:18:50;;;;;;;585.03;118.20;;;8.30;99.90;;;;;;4913340;29;20032;-75
2023/10/26 07:21:16;;;;;;;409.67;103.38;;;8.40;99.90;;;;;;4906007;29;20064;-75
2023/10/26 07:23:42;;;;;;;701.65;124.22;;;8.40;99.90;;;;;;4908679;29;20474;-76
2023/10/26 07:26:07;;;;;;;607.28;116.55;;;8.40;99.90;;;;;;4910312;29;20462;-75
2023/10/26 07:28:33;;;;;;;547.40;111.97;;;8.50;99.90;;;;;;4911040;29;20131;-75
2023/10/26 07:30:58;;;;;;;531.00;109.50;;;8.40;99.90;;;;;;4889960;29;20047;-76
2023/10/26 07:33:24;;;;;;;654.13;122.07;;;8.40;99.90;;;;;;4942444;29;20044;-78
2023/10/26 07:35:56;;;;;;;592.13;113.55;;;8.40;99.90;;;;;;4921933;29;20040;-77
2023/10/26 07:38:25;;;;;;;661.20;124.80;;;8.40;99.90;;;;;;4908849;29;20040;-75
2023/10/26 07:40:53;;;;;;;504.63;110.45;;;8.40;99.90;;;;;;4925049;29;20036;-75
2023/10/26 07:43:18;;;;;;;577.15;119.65;;;8.40;99.90;;;;;;4909433;29;20051;-77
2023/10/26 07:45:47;;;;;;;472.10;111.10;;;8.40;99.90;;;;;;4918762;29;20043;-77
2023/10/26 07:48:13;;;;;;;557.00;116.90;;;8.50;99.90;;;;;;4920377;29;20044;-75
2023/10/26 07:50:38;;;;;;;507.65;112.10;;;8.50;99.90;;;;;;4923522;29;20507;-77
2023/10/26 07:53:05;;;;;;;487.40;108.75;;;8.50;99.90;;;;;;4924270;29;20046;-77
2023/10/26 07:55:31;;;;;;;465.60;109.35;;;8.60;99.90;;;;;;4925771;29;20072;-78
2023/10/26 07:57:57;;;;;;;545.92;116.32;;;8.60;99.90;;;;;;4923729;29;20047;-78
2023/10/26 08:00:22;;;;;;;537.45;111.85;;;8.70;99.90;;;;;;4926658;29;20520;-78
2023/10/26 08:02:48;;;;;;;463.67;108.18;;;8.80;99.90;;;;;;4897369;29;20080;-78
2023/10/26 08:05:15;;;;;;;599.95;122.78;;;8.80;99.90;;;;;;4918843;29;20051;-77
2023/10/26 08:07:41;;;;;;;462.77;112.95;;;8.80;99.90;;;;;;4930483;29;20102;-78
2023/10/26 08:10:09;;;;;;;468.00;113.22;;;8.90;99.90;;;;;;4939711;29;20054;-78
2023/10/26 08:12:35;;;;;;;409.83;108.38;;;9.00;99.90;;;;;;4929355;29;20040;-78
2023/10/26 08:15:02;;;;;;;432.55;109.28;;;9.00;99.90;;;;;;4903157;29;20036;-77
2023/10/26 08:17:28;;;;;;;341.63;104.38;;;9.00;99.90;;;;;;4927902;29;20044;-80
2023/10/26 08:19:55;;;;;;;332.50;101.80;;;9.10;99.90;;;;;;4925009;29;20186;-78
2023/10/26 08:22:21;;;;;;;326.77;103.55;;;9.20;99.90;;;;;;4930782;29;20123;-79
2023/10/26 08:24:49;;;;;;;220.73;92.20;;;9.30;99.90;;;;;;4936612;29;20043;-78
2023/10/26 08:27:15;;;;;;;224.52;93.57;;;9.30;99.90;;;;;;4921102;29;20075;-78
2023/10/26 08:29:41;;;;;;;195.32;90.72;;;9.40;99.90;;;;;;4905591;29;20032;-78
2023/10/26 08:32:07;;;;;;;193.73;91.63;;;9.40;99.90;;;;;;4935844;29;20040;-78
2023/10/26 08:34:32;;;;;;;192.45;92.57;;;9.50;99.90;;;;;;4948257;29;20067;-77
2023/10/26 08:37:01;;;;;;;163.80;85.80;;;9.50;99.90;;;;;;4926045;29;20161;-78
2023/10/26 08:39:27;;;;;;;162.65;86.53;;;9.60;99.90;;;;;;4917080;29;20047;-77
2023/10/26 08:41:57;;;;;;;133.25;81.05;;;9.70;99.90;;;;;;4934144;29;20036;-78
2023/10/26 08:44:24;;;;;;;136.60;82.30;;;9.80;99.90;;;;;;4956061;29;20039;-77
2023/10/26 08:46:52;;;;;;;112.00;75.28;;;9.90;99.90;;;;;;4935272;29;20040;-78
2023/10/26 08:49:21;;;;;;;95.63;72.45;;;9.90;99.90;;;;;;4929069;29;20517;-79
2023/10/26 08:51:47;;;;;;;89.80;68.78;;;10.00;99.90;;;;;;4903012;29;20040;-78
2023/10/26 08:54:13;;;;;;;86.65;67.70;;;10.00;99.90;;;;;;4908743;29;20395;-78
2023/10/26 08:56:38;;;;;;;74.57;64.55;;;10.00;99.90;;;;;;4922855;29;20036;-78
2023/10/26 08:59:04;;;;;;;78.15;67.25;;;10.10;99.90;;;;;;4901020;29;20662;-78
2023/10/26 09:01:30;;;;;;;77.03;64.95;;;10.10;99.90;;;;;;4931200;29;20036;-78
2023/10/26 09:03:55;;;;;;;85.15;67.90;;;10.30;99.90;;;;;;4921975;29;20130;-78
2023/10/26 09:06:21;;;;;;;68.75;61.38;;;10.40;99.90;;;;;;4929203;29;20043;-78
2023/10/26 09:09:03;;;;;;;65.55;58.38;;;10.60;99.90;;;;;;4914626;29;20116;-78
2023/10/26 09:11:30;;;;;;;66.68;59.13;;;10.80;99.90;;;;;;4922147;29;20043;-77
2023/10/26 09:14:12;;;;;;;68.85;61.35;;;10.80;99.90;;;;;;4904097;29;20127;-79
2023/10/26 09:16:39;;;;;;;74.38;61.15;;;10.80;99.90;;;;;;4929008;29;20047;-79
2023/10/26 09:19:05;;;;;;;62.67;56.10;;;10.80;99.90;;;;;;4920301;29;20598;-79
2023/10/26 09:21:51;;;;;;;64.00;56.92;;;10.70;99.90;;;;;;4930888;29;20075;-79
2023/10/26 09:24:25;;;;;;;63.22;56.42;;;10.70;99.90;;;;;;4935197;29;20537;-79
2023/10/26 09:26:55;;;;;;;69.28;55.20;;;10.70;99.90;;;;;;4927418;29;20123;-79
2023/10/26 09:29:34;;;;;;;62.08;55.67;;;10.60;99.90;;;;;;4924421;29;20048;-79
2023/10/26 09:31:59;;;;;;;68.15;59.78;;;10.60;99.90;;;;;;4926815;29;20067;-79
2023/10/26 09:34:27;;;;;;;69.10;60.47;;;10.60;99.90;;;;;;4926701;29;20414;-79
2023/10/26 09:37:03;;;;;;;136.93;72.82;;;10.50;99.90;;;;;;4917512;29;20067;-79
2023/10/26 09:39:31;;;;;;;161.70;79.82;;;10.50;99.90;;;;;;4926741;29;20431;-79
2023/10/26 09:42:02;;;;;;;68.70;61.13;;;10.60;99.90;;;;;;4920760;29;20071;-79
2023/10/26 09:44:29;;;;;;;62.80;56.33;;;10.80;99.90;;;;;;4929840;29;20518;-79
2023/10/26 09:46:56;;;;;;;60.78;54.75;;;10.90;99.90;;;;;;4920827;29;20039;-79
2023/10/26 09:49:24;;;;;;;58.28;52.40;;;11.00;99.90;;;;;;4913959;29;20048;-79
2023/10/26 09:51:50;;;;;;;55.95;50.67;;;11.00;99.90;;;;;;4938282;29;20425;-79
2023/10/26 09:54:32;;;;;;;57.63;51.92;;;11.00;99.90;;;;;;4927978;29;20524;-79
2023/10/26 09:57:04;;;;;;;53.88;49.00;;;11.10;99.90;;;;;;4932824;29;20490;-79
2023/10/26 09:59:30;;;;;;;52.45;47.60;;;11.10;99.90;;;;;;4919297;29;20044;-79
2023/10/26 10:01:56;;;;;;;48.53;44.00;;;11.10;99.90;;;;;;4934412;29;20406;-79
2023/10/26 10:04:37;;;;;;;51.83;46.95;;;11.00;99.90;;;;;;4922559;29;20130;-79
2023/10/26 10:07:03;;;;;;;51.83;47.13;;;11.00;99.90;;;;;;4939928;29;20103;-79
2023/10/26 10:09:29;;;;;;;53.17;48.17;;;11.00;99.90;;;;;;4946669;29;20507;-79
2023/10/26 10:12:04;;;;;;;51.53;46.75;;;11.10;99.90;;;;;;4919771;29;20040;-79
2023/10/26 10:14:57;;;;;;;49.58;44.92;;;11.10;99.90;;;;;;4934179;29;20044;-79
2023/10/26 10:17:46;;;;;;;48.10;43.85;;;11.20;99.90;;;;;;4912130;29;20036;-78
2023/10/26 10:20:17;;;;;;;47.58;43.30;;;11.20;99.90;;;;;;4929529;29;20044;-79
2023/10/26 10:22:47;;;;;;;44.63;40.83;;;11.20;99.90;;;;;;4930190;29;20043;-82
2023/10/26 10:25:14;;;;;;;45.72;41.60;;;11.30;99.90;;;;;;4939442;29;20071;-80
2023/10/26 10:28:00;;;;;;;47.22;42.90;;;11.50;99.90;;;;;;4914098;29;20053;-80
2023/10/26 10:30:46;;;;;;;44.42;40.45;;;11.60;99.90;;;;;;4910316;29;20394;-80
2023/10/26 10:33:19;;;;;;;41.63;38.03;;;11.90;99.90;;;;;;4933063;29;20066;-80
2023/10/26 10:36:01;;;;;;;42.13;38.50;;;12.10;99.90;;;;;;4921676;29;20117;-80
2023/10/26 10:38:27;;;;;;;38.53;35.22;;;12.50;99.90;;;;;;4893351;29;20426;-81
2023/10/26 10:40:57;;;;;;;40.85;37.25;;;12.50;99.90;;;;;;4896771;29;20032;-80
2023/10/26 10:43:31;;;;;;;40.47;37.08;;;12.30;99.90;;;;;;4926869;29;20047;-81
2023/10/26 10:45:56;;;;;;;40.30;36.72;;;12.30;99.90;;;;;;4897676;29;20047;-78
2023/10/26 10:48:22;;;;;;;40.25;36.63;;;12.20;99.90;;;;;;4906165;29;20041;-80
2023/10/26 10:50:51;;;;;;;37.58;34.47;;;12.10;99.90;;;;;;4931804;29;20071;-80
2023/10/26 10:53:16;;;;;;;40.08;36.65;;;12.10;99.90;;;;;;4927632;29;20127;-78
2023/10/26 10:55:43;;;;;;;36.13;32.95;;;12.00;99.90;;;;;;4904042;29;20198;-78
2023/10/26 10:58:09;;;;;;;38.50;35.03;;;12.20;99.90;;;;;;4922443;29;20040;-78
2023/10/26 11:00:45;;;;;;;37.58;34.17;;;12.20;99.90;;;;;;4927659;29;20055;-77
2023/10/26 11:03:50;;;;;;;36.25;33.15;;;12.00;99.90;;;;;;4951036;23;20050;-80
2023/10/26 11:06:35;;;;;;;40.22;36.55;;;11.70;99.90;;;;;;4920234;29;20047;-80
2023/10/26 11:10:13;;;;;;;36.00;32.90;;;11.70;99.90;;;;;;4942191;29;20419;-80
2023/10/26 11:20:10;;;;;;;38.03;34.55;;;12.70;99.90;;;;;;4942951;28;20111;-81
2023/10/26 11:26:18;;;;;;;37.85;34.60;;;12.80;99.90;;;;;;4883759;29;20048;-81
2023/10/26 11:38:53;;;;;;;27.10;24.80;;;12.70;99.90;;;;;;5261039;23;20071;-85
2023/10/26 11:41:45;;;;;;;;;;;;;;;;;;;;;
2023/10/26 11:44:29;;;;;;;33.33;30.42;;;13.30;99.90;;;;;;4889577;29;20044;-81
2023/10/26 11:47:17;;;;;;;25.80;23.70;;;13.90;99.90;;;;;;4862077;29;20045;-81
2023/10/26 11:50:05;;;;;;;26.98;24.70;;;14.60;99.90;;;;;;4864990;29;20084;-82
2023/10/26 11:52:58;;;;;;;24.95;22.92;;;15.10;99.90;;;;;;4843009;29;20053;-82
2023/10/26 11:56:13;;;;;;;18.70;17.20;;;15.40;99.90;;;;;;4832884;29;20546;-81
2023/10/26 11:59:48;;;;;;;;;;;;;;;;;;;;;
2023/10/26 12:06:53;;;;;;;20.08;18.48;;;14.60;99.90;;;;;;4767647;30;20039;-82
2023/10/26 12:13:28;;;;;;;20.88;19.00;;;14.60;99.90;;;;;;4797815;29;20047;-80
2023/10/26 14:22:57;;;;;;;19.00;17.50;;;12.70;99.90;;;;;;4891521;29;20347;-82
2023/10/26 14:25:50;;;;;;;17.80;16.40;;;12.70;99.90;;;;;;4923226;23;20052;-79
2023/10/26 14:28:15;;;;;;;19.85;18.15;;;12.70;99.90;;;;;;4944115;29;20058;-79
2023/10/26 14:30:41;;;;;;;18.40;16.90;;;12.70;99.90;;;;;;4945157;29;20075;-78
2023/10/26 14:33:06;;;;;;;17.52;16.13;;;12.60;99.90;;;;;;4941178;29;20520;-78
2023/10/26 14:35:32;;;;;;;19.70;18.00;;;12.60;99.90;;;;;;4919479;29;20039;-79
2023/10/26 14:37:59;;;;;;;17.35;15.95;;;12.50;99.90;;;;;;4918424;29;20505;-79
2023/10/26 14:40:25;;;;;;;20.42;18.63;;;12.40;99.90;;;;;;4921109;29;20055;-79
2023/10/26 14:42:51;;;;;;;18.27;16.60;;;12.30;99.90;;;;;;4920098;29;20123;-79
2023/10/26 14:45:16;;;;;;;19.95;18.35;;;12.20;99.90;;;;;;4904309;29;20435;-79
2023/10/26 14:47:42;;;;;;;23.00;20.95;;;12.20;99.90;;;;;;4905961;29;20047;-78
2023/10/26 14:50:07;;;;;;;22.00;20.33;;;12.10;99.90;;;;;;4920893;29;20042;-79
2023/10/26 14:52:33;;;;;;;21.45;19.70;;;12.10;99.90;;;;;;4921175;29;20123;-79
2023/10/26 14:54:58;;;;;;;21.40;19.55;;;12.00;99.90;;;;;;4926968;29;20036;-78
2023/10/26 14:57:24;;;;;;;26.25;24.13;;;11.90;99.90;;;;;;4934032;29;20044;-79
2023/10/26 14:59:49;;;;;;;24.45;22.30;;;11.90;99.90;;;;;;4929872;29;20384;-79
2023/10/26 15:02:15;;;;;;;26.60;24.30;;;11.80;99.90;;;;;;4901978;29;20072;-78
2023/10/26 15:04:41;;;;;;;24.77;22.60;;;11.70;99.90;;;;;;4923894;29;20044;-78
2023/10/26 15:07:06;;;;;;;23.52;21.73;;;11.60;99.90;;;;;;4917097;29;20103;-78